Pagina principale
METAR-TAF:

METAR-TAF

Aeroporti :

Foz do Iguaçu, Paraná, Brasile

latitudine: 25-31S, longitudine: 054-35W, altezza: 180 m

Osservazione

Il bollettino è stato emesso 22 minuti fa, alle 02:00 UTC
Vento calmo
Temperature 16°C
Umidità 100%
Pressione 1021 hPa
Visibilità 10 km o più
nessuna nube inferiore a 1500 m e nessun cumulonembo

METAR: SBFI 160200Z 00000KT CAVOK 16/16 Q1021

Ora: 23:22 (02:22 UTC)

Previsione

Il bollettino è stato emesso 3 ore e 52 minuti fa, alle 22:30 UTC
Previsione valida dal 16 alle 00 UTC al 16 alle 24 UTC
Vento 5 kt da sud
Visibilità 10 km o più
nessuna nube inferiore a 1500 m e nessun cumulonembo
Probabilità 40%
dal 16 alle 08 UTC al 16 alle 10 UTC
Visibilità: 0500 m
ad un'altezza di 200 ft
nebbia
Evoluzione graduale
dal 16 alle 11 UTC al 16 alle 13 UTC
Vento 5 kt da est

TAF: SBFI 152230Z 1600/1624 17005KT CAVOK TN14/1608Z TX27/1618Z PROB40 1608/1610 0500 FG VV002 BECMG 1611/1613 09005KT RMK PEB

Osservazioni e previsioni meteorologiche di più di 4000 aeroporti (messaggi METAR e TAF).

Le stazioni disponibili sono rappresentate dai dischi gialli e rossi sulla carta.

Puntare il mouse per vedere il nome della stazione.

Clicca sopra per visualizzare le osservazioni e previsioni meteorologiche.

Per cambiare la mappa : fare clic sui pulsanti verdi con una croce nera per ingrandire, il pulsante verde con un trattino per diminuire, o sulla freccia verde per le mappe adiacenti.


METAR-TAF: